createdAt,value
2018-04-17T00:05:39.927Z,99943.17
2018-04-17T00:11:44.299Z,99952.55
2018-04-17T00:17:48.786Z,99958.73
2018-04-17T00:23:53.349Z,99957.80
2018-04-17T00:29:57.878Z,99967.30
2018-04-17T00:36:02.281Z,99966.36
2018-04-17T00:42:07.446Z,99978.60
2018-04-17T00:48:12.289Z,99995.75
2018-04-17T00:54:16.741Z,100004.38
2018-04-17T01:00:21.118Z,100014.52
2018-04-17T01:06:25.583Z,100021.94
2018-04-17T01:12:30.800Z,100029.45
2018-04-17T01:18:35.196Z,100031.05
2018-04-17T01:24:40.096Z,100025.30
2018-04-17T01:30:44.696Z,100033.70
2018-04-17T01:36:49.105Z,100035.61
2018-04-17T01:42:54.264Z,100037.30
2018-04-17T01:48:58.703Z,100040.27
2018-04-17T01:55:03.161Z,100042.69
2018-04-17T02:01:07.641Z,100045.98
2018-04-17T02:07:12.027Z,100053.97
2018-04-17T02:13:16.427Z,100059.77
2018-04-17T02:19:20.874Z,100059.98
2018-04-17T02:25:25.342Z,100063.35
2018-04-17T02:31:29.746Z,100062.18
2018-04-17T02:37:34.137Z,100063.27
2018-04-17T02:43:38.520Z,100060.59
2018-04-17T02:49:43.235Z,100070.91
2018-04-17T02:55:48.440Z,100074.92
2018-04-17T03:01:52.818Z,100078.23
2018-04-17T03:07:58.093Z,100083.31
2018-04-17T03:14:03.234Z,100086.52
2018-04-17T03:20:07.845Z,100098.81
2018-04-17T03:26:12.272Z,100106.71
2018-04-17T03:32:16.655Z,100109.32
2018-04-17T03:38:21.103Z,100116.59
2018-04-17T03:44:26.307Z,100125.66
2018-04-17T03:50:30.667Z,100132.75
2018-04-17T03:56:35.056Z,100132.25
2018-04-17T04:02:39.458Z,100135.80
2018-04-17T04:08:43.929Z,100138.20
2018-04-17T04:14:48.392Z,100144.30
2018-04-17T04:21:10.679Z,100155.41
2018-04-17T04:27:15.070Z,100165.46
2018-04-17T04:33:19.466Z,100174.17
2018-04-17T04:39:23.923Z,100182.26
2018-04-17T04:45:28.512Z,100182.41
2018-04-17T04:51:32.917Z,100186.51
2018-04-17T04:57:37.344Z,100200.98
2018-04-17T05:03:41.936Z,100212.02
2018-04-17T05:09:46.346Z,100222.13
2018-04-17T05:15:50.748Z,100231.83
2018-04-17T05:21:55.927Z,100240.36
2018-04-17T05:28:00.343Z,100258.59
2018-04-17T05:34:04.744Z,100278.31
2018-04-17T05:40:09.287Z,100290.19
2018-04-17T05:46:14.791Z,100285.09
2018-04-17T05:52:19.933Z,100300.12
2018-04-17T05:58:24.330Z,100306.31
2018-04-17T06:04:28.763Z,100311.64
2018-04-17T06:10:33.210Z,100312.09
2018-04-17T06:16:37.666Z,100325.23
2018-04-17T06:22:42.077Z,100336.14
2018-04-17T06:28:46.457Z,100341.06
2018-04-17T06:34:50.950Z,100359.08
2018-04-17T06:40:55.356Z,100365.95
2018-04-17T06:46:59.744Z,100373.43
2018-04-17T06:53:04.968Z,100372.84
2018-04-17T06:59:09.588Z,100365.97
2018-04-17T07:05:14.070Z,100364.05
2018-04-17T07:11:18.455Z,100372.71
2018-04-17T07:17:22.869Z,100370.44
2018-04-17T07:23:27.282Z,100372.73
2018-04-17T07:29:31.741Z,100371.27
2018-04-17T07:35:36.855Z,100380.18
2018-04-17T07:41:41.442Z,100387.67
2018-04-17T07:48:03.705Z,100388.54
2018-04-17T07:54:08.174Z,100387.93
2018-04-17T08:00:12.586Z,100387.39
2018-04-17T08:06:17.002Z,100393.16
2018-04-17T08:12:22.241Z,100392.13
2018-04-17T08:18:26.722Z,100403.15
2018-04-17T08:24:31.131Z,100406.09
2018-04-17T08:30:35.501Z,100403.17
2018-04-17T08:36:40.753Z,100405.92
2018-04-17T08:42:45.198Z,100404.92
2018-04-17T08:48:49.669Z,100414.36
2018-04-17T08:54:54.817Z,100408.48
2018-04-17T09:00:59.203Z,100416.52
2018-04-17T09:07:03.660Z,100414.47
2018-04-17T09:13:08.047Z,100419.53
2018-04-17T09:19:13.272Z,100416.75
2018-04-17T09:25:17.692Z,100419.04
2018-04-17T09:31:22.148Z,100422.80
2018-04-17T09:37:27.291Z,100421.48
2018-04-17T09:43:31.749Z,100421.73
2018-04-17T09:49:36.146Z,100433.06
2018-04-17T09:55:41.026Z,100429.22
2018-04-17T10:01:45.416Z,100421.87
2018-04-17T10:07:49.849Z,100423.89
2018-04-17T10:13:54.325Z,100411.16
2018-04-17T10:19:58.818Z,100408.58
2018-04-17T10:26:03.214Z,100403.05
2018-04-17T10:32:07.613Z,100396.39
2018-04-17T10:38:12.080Z,100396.27
2018-04-17T10:44:16.574Z,100387.76
2018-04-17T10:50:20.979Z,100386.25
2018-04-17T10:56:26.190Z,100376.73
2018-04-17T11:02:30.652Z,100387.57
2018-04-17T11:08:35.127Z,100389.02
2018-04-17T11:14:39.657Z,100384.97
2018-04-17T11:20:44.254Z,100367.39
2018-04-17T11:26:48.663Z,100364.36
2018-04-17T11:32:53.034Z,100358.44
2018-04-17T11:38:57.425Z,100358.84
2018-04-17T11:45:01.819Z,100356.66
2018-04-17T11:51:06.175Z,100359.87
2018-04-17T11:57:10.563Z,100355.16
2018-04-17T12:03:14.997Z,100348.20
2018-04-17T12:09:20.171Z,100350.52
2018-04-17T12:15:24.585Z,100347.56
2018-04-17T12:21:28.973Z,100350.26
2018-04-17T12:27:33.344Z,100354.80
2018-04-17T12:33:37.766Z,100349.05
2018-04-17T12:39:42.575Z,100351.47
2018-04-17T12:45:47.785Z,100358.55
2018-04-17T12:51:52.322Z,100362.37
2018-04-17T12:57:56.672Z,100364.30
2018-04-17T13:04:01.144Z,100369.25
2018-04-17T13:10:05.518Z,100366.83
2018-04-17T13:16:10.148Z,100360.45
2018-04-17T13:22:17.600Z,100368.64
2018-04-17T13:28:22.819Z,100363.77
2018-04-17T13:34:27.189Z,100360.06
2018-04-17T13:40:31.612Z,100357.03
2018-04-17T13:46:35.997Z,100354.67
2018-04-17T13:52:40.435Z,100345.26
2018-04-17T13:58:44.888Z,100343.67
2018-04-17T14:04:49.372Z,100345.87
2018-04-17T14:10:53.856Z,100349.66
2018-04-17T14:16:58.222Z,100349.91
2018-04-17T14:23:02.635Z,100338.11
2018-04-17T14:29:07.005Z,100332.25
2018-04-17T14:35:11.943Z,100336.61
2018-04-17T14:41:17.110Z,100340.86
2018-04-17T14:47:21.566Z,100336.21
2018-04-17T14:53:26.028Z,100344.03
2018-04-17T14:59:30.490Z,100334.76
2018-04-17T15:05:34.905Z,100334.16
2018-04-17T15:11:39.291Z,100341.30
2018-04-17T15:17:43.734Z,100334.61
2018-04-17T15:23:48.169Z,100344.77
2018-04-17T15:29:53.306Z,100347.71
2018-04-17T15:35:57.681Z,100353.88
2018-04-17T15:42:02.132Z,100349.14
2018-04-17T15:48:06.622Z,100349.84
2018-04-17T15:54:11.207Z,100350.46
2018-04-17T16:00:15.663Z,100349.13
2018-04-17T16:06:20.079Z,100350.84
2018-04-17T16:12:24.435Z,100359.65
2018-04-17T16:18:28.801Z,100369.11
2018-04-17T16:24:33.285Z,100366.16
2018-04-17T16:30:37.668Z,100379.02
2018-04-17T16:36:42.372Z,100376.30
2018-04-17T16:42:46.768Z,100382.48
2018-04-17T16:48:51.123Z,100387.45
2018-04-17T16:54:55.512Z,100393.64
2018-04-17T17:00:59.916Z,100389.44
2018-04-17T17:07:05.050Z,100380.20
2018-04-17T17:13:09.620Z,100377.22
2018-04-17T17:19:14.104Z,100379.86
2018-04-17T17:25:18.485Z,100380.84
2018-04-17T17:31:22.874Z,100383.87
2018-04-17T17:37:27.315Z,100399.30
2018-04-17T17:43:31.680Z,100413.50
2018-04-17T17:49:36.060Z,100422.03
2018-04-17T17:55:40.526Z,100439.98
2018-04-17T18:01:45.307Z,100437.19
2018-04-17T18:07:49.677Z,100449.55
2018-04-17T18:13:54.824Z,100457.05
2018-04-17T18:19:59.181Z,100465.77
2018-04-17T18:26:03.547Z,100469.67
2018-04-17T18:32:07.970Z,100474.63
2018-04-17T18:38:12.565Z,100478.92
2018-04-17T18:44:17.064Z,100491.91
2018-04-17T18:50:21.424Z,100504.49
2018-04-17T18:56:26.689Z,100519.23
2018-04-17T19:02:31.058Z,100527.59
2018-04-17T19:08:35.493Z,100530.34
2018-04-17T19:14:40.077Z,100538.46
2018-04-17T19:20:44.515Z,100539.20
2018-04-17T19:26:49.728Z,100546.58
2018-04-17T19:32:54.113Z,100548.46
2018-04-17T19:38:58.499Z,100552.02
2018-04-17T19:45:02.936Z,100571.19
2018-04-17T19:51:08.111Z,100575.95
2018-04-17T19:57:12.568Z,100588.54
2018-04-17T20:03:16.971Z,100588.25
2018-04-17T20:09:21.353Z,100587.11
2018-04-17T20:15:25.771Z,100590.66
2018-04-17T20:21:30.156Z,100591.44
2018-04-17T20:27:34.528Z,100589.75
2018-04-17T20:33:38.886Z,100599.45
2018-04-17T20:39:43.283Z,100597.02
2018-04-17T20:45:47.664Z,100598.37
2018-04-17T20:51:52.032Z,100596.13
2018-04-17T20:57:56.584Z,100601.14
2018-04-17T21:04:01.745Z,100602.72
2018-04-17T21:10:06.158Z,100611.31
2018-04-17T21:16:10.754Z,100620.59
2018-04-17T21:22:15.124Z,100622.63
2018-04-17T21:28:19.528Z,100625.48
2018-04-17T21:34:23.882Z,100626.96
2018-04-17T21:40:28.276Z,100634.30
2018-04-17T21:46:32.712Z,100649.67
2018-04-17T21:52:37.173Z,100651.91
2018-04-17T21:58:41.558Z,100662.08
2018-04-17T22:04:45.962Z,100660.90
2018-04-17T22:10:50.351Z,100666.56
2018-04-17T22:16:54.879Z,100661.69
2018-04-17T22:22:59.380Z,100667.76
2018-04-17T22:29:03.748Z,100673.94
2018-04-17T22:35:08.127Z,100678.97
2018-04-17T22:41:12.727Z,100676.73
2018-04-17T22:47:17.166Z,100686.59
2018-04-17T22:53:21.526Z,100687.11
2018-04-17T22:59:25.905Z,100685.66
2018-04-17T23:05:31.233Z,100690.92
2018-04-17T23:11:35.853Z,100700.89
2018-04-17T23:17:40.226Z,100703.61
2018-04-17T23:23:44.677Z,100709.36
2018-04-17T23:29:49.030Z,100711.98
2018-04-17T23:35:53.434Z,100712.81
2018-04-17T23:41:57.811Z,100723.58
2018-04-17T23:48:02.175Z,100723.88
2018-04-17T23:54:06.551Z,100735.19
